createdAt,value
2019-03-26T00:00:57.530Z,4.49
2019-03-26T00:03:28.905Z,4.45
2019-03-26T00:06:00.168Z,4.44
2019-03-26T00:08:31.579Z,4.41
2019-03-26T00:11:03.550Z,4.43
2019-03-26T00:13:34.827Z,4.45
2019-03-26T00:16:06.169Z,4.47
2019-03-26T00:18:37.592Z,4.47
2019-03-26T00:21:08.867Z,4.48
2019-03-26T00:23:46.039Z,4.48
2019-03-26T00:26:17.401Z,4.48
2019-03-26T00:28:48.697Z,4.50
2019-03-26T00:31:21.017Z,4.52
2019-03-26T00:33:52.358Z,4.54
2019-03-26T00:36:23.746Z,4.55
2019-03-26T00:38:55.156Z,4.62
2019-03-26T00:41:26.469Z,4.66
2019-03-26T00:43:57.795Z,4.71
2019-03-26T00:46:29.186Z,4.73
2019-03-26T00:49:00.615Z,4.75
2019-03-26T00:51:31.936Z,4.75
2019-03-26T00:54:05.000Z,4.81
2019-03-26T00:56:36.405Z,4.81
2019-03-26T00:59:07.779Z,4.80
2019-03-26T01:01:39.120Z,4.81
2019-03-26T01:04:10.636Z,4.82
2019-03-26T01:06:41.932Z,4.83
2019-03-26T01:09:13.290Z,4.82
2019-03-26T01:11:44.634Z,4.79
2019-03-26T01:14:15.988Z,4.76
2019-03-26T01:16:47.210Z,4.74
2019-03-26T01:19:18.565Z,4.73
2019-03-26T01:21:49.862Z,4.71
2019-03-26T01:24:21.209Z,4.67
2019-03-26T01:26:52.441Z,4.64
2019-03-26T01:29:23.772Z,4.61
2019-03-26T01:31:55.135Z,4.57
2019-03-26T01:34:26.472Z,4.53
2019-03-26T01:36:57.690Z,4.51
2019-03-26T01:39:29.030Z,4.49
2019-03-26T01:42:00.765Z,4.46
2019-03-26T01:44:33.110Z,4.47
2019-03-26T01:47:04.472Z,4.47
2019-03-26T01:49:35.765Z,4.42
2019-03-26T01:52:07.034Z,4.40
2019-03-26T01:54:38.426Z,4.40
2019-03-26T01:57:09.720Z,4.42
2019-03-26T01:59:41.197Z,4.40
2019-03-26T02:02:12.499Z,4.41
2019-03-26T02:04:59.437Z,4.40
2019-03-26T02:07:19.897Z,4.41
2019-03-26T02:09:51.176Z,4.41
2019-03-26T02:12:22.407Z,4.42
2019-03-26T02:14:53.677Z,4.45
2019-03-26T02:17:24.907Z,4.46
2019-03-26T02:19:56.220Z,4.49
2019-03-26T02:22:27.579Z,4.50
2019-03-26T02:24:58.850Z,4.53
2019-03-26T02:27:30.075Z,4.55
2019-03-26T02:30:01.359Z,4.56
2019-03-26T02:32:32.652Z,4.58
2019-03-26T02:35:16.866Z,4.61
2019-03-26T02:37:37.014Z,4.61
2019-03-26T02:40:08.630Z,4.61
2019-03-26T02:42:39.999Z,4.64
2019-03-26T02:45:11.446Z,4.64
2019-03-26T02:47:42.680Z,4.66
2019-03-26T02:50:14.152Z,4.66
2019-03-26T02:52:46.448Z,4.66
2019-03-26T02:55:17.984Z,4.68
2019-03-26T02:57:49.356Z,4.69
2019-03-26T03:00:22.416Z,4.70
2019-03-26T03:02:53.720Z,4.67
2019-03-26T03:05:35.331Z,4.68
2019-03-26T03:07:58.082Z,4.70
2019-03-26T03:10:29.560Z,4.71
2019-03-26T03:13:00.788Z,4.72
2019-03-26T03:15:32.069Z,4.72
2019-03-26T03:18:03.401Z,4.72
2019-03-26T03:20:35.119Z,4.71
2019-03-26T03:23:06.439Z,4.72
2019-03-26T03:25:37.855Z,4.72
2019-03-26T03:28:09.097Z,4.72
2019-03-26T03:30:40.554Z,4.73
2019-03-26T03:33:12.023Z,4.73
2019-03-26T03:35:52.077Z,4.73
2019-03-26T03:38:16.370Z,4.74
2019-03-26T03:40:47.706Z,4.72
2019-03-26T03:43:19.070Z,4.73
2019-03-26T03:45:56.136Z,4.72
2019-03-26T03:48:27.818Z,4.71
2019-03-26T03:50:59.727Z,4.71
2019-03-26T03:53:31.270Z,4.71
2019-03-26T03:56:03.774Z,4.69
2019-03-26T03:58:36.771Z,4.69
2019-03-26T04:01:08.102Z,4.68
2019-03-26T04:03:39.371Z,4.69
2019-03-26T04:06:10.709Z,4.68
2019-03-26T04:08:41.930Z,4.66
2019-03-26T04:11:13.266Z,4.66
2019-03-26T04:13:44.604Z,4.62
2019-03-26T04:16:16.089Z,4.61
2019-03-26T04:18:47.579Z,4.60
2019-03-26T04:21:21.440Z,4.58
2019-03-26T04:23:52.693Z,4.56
2019-03-26T04:26:24.063Z,4.53
2019-03-26T04:28:56.427Z,4.51
2019-03-26T04:31:27.728Z,4.50
2019-03-26T04:33:58.954Z,4.47
2019-03-26T04:36:30.303Z,4.43
2019-03-26T04:39:01.595Z,4.41
2019-03-26T04:41:34.349Z,4.35
2019-03-26T04:44:08.402Z,4.36
2019-03-26T04:46:39.702Z,4.34
2019-03-26T04:49:11.083Z,4.30
2019-03-26T04:51:42.354Z,4.25
2019-03-26T04:54:13.673Z,4.20
2019-03-26T04:56:44.949Z,4.16
2019-03-26T04:59:16.459Z,4.16
2019-03-26T05:01:47.780Z,4.16
2019-03-26T05:04:19.127Z,4.17
2019-03-26T05:06:50.428Z,4.12
2019-03-26T05:09:23.402Z,4.12
2019-03-26T05:11:54.631Z,4.16
2019-03-26T05:14:25.953Z,4.15
2019-03-26T05:16:57.263Z,4.11
2019-03-26T05:19:28.487Z,4.08
2019-03-26T05:22:00.138Z,4.03
2019-03-26T05:24:31.433Z,4.00
2019-03-26T05:27:02.769Z,3.99
2019-03-26T05:29:34.182Z,3.99
2019-03-26T05:32:05.511Z,3.97
2019-03-26T05:34:36.745Z,3.97
2019-03-26T05:37:08.032Z,3.99
2019-03-26T05:39:39.254Z,4.00
2019-03-26T05:42:10.627Z,4.01
2019-03-26T05:44:41.925Z,4.03
2019-03-26T05:47:13.150Z,4.03
2019-03-26T05:49:44.522Z,4.02
2019-03-26T05:52:15.845Z,3.99
2019-03-26T05:54:47.258Z,3.93
2019-03-26T05:57:18.561Z,3.95
2019-03-26T05:59:49.916Z,3.94
2019-03-26T06:02:21.144Z,3.94
2019-03-26T06:04:52.515Z,3.93
2019-03-26T06:07:23.800Z,3.91
2019-03-26T06:09:55.106Z,3.92
2019-03-26T06:12:26.338Z,3.90
2019-03-26T06:14:57.698Z,3.93
2019-03-26T06:17:28.976Z,3.92
2019-03-26T06:20:00.431Z,3.91
2019-03-26T06:22:31.884Z,3.96
2019-03-26T06:25:03.491Z,4.00
2019-03-26T06:27:34.912Z,4.06
2019-03-26T06:30:10.576Z,4.03
2019-03-26T06:32:41.939Z,4.05
2019-03-26T06:35:16.556Z,4.10
2019-03-26T06:37:47.926Z,4.13
2019-03-26T06:40:19.284Z,4.14
2019-03-26T06:42:51.813Z,4.20
2019-03-26T06:45:23.174Z,4.32
2019-03-26T06:47:54.637Z,4.34
2019-03-26T06:50:26.789Z,4.39
2019-03-26T06:52:58.202Z,4.47
2019-03-26T06:55:29.494Z,4.54
2019-03-26T06:58:00.847Z,4.62
2019-03-26T07:00:34.372Z,4.71
2019-03-26T07:03:08.106Z,4.72
2019-03-26T07:05:39.441Z,4.73
2019-03-26T07:08:10.823Z,4.67
2019-03-26T07:10:42.048Z,4.67
2019-03-26T07:13:13.350Z,4.70
2019-03-26T07:15:44.566Z,4.72
2019-03-26T07:18:15.899Z,4.73
2019-03-26T07:20:47.259Z,4.74
2019-03-26T07:23:18.672Z,4.77
2019-03-26T07:25:50.037Z,4.81
2019-03-26T07:28:21.455Z,4.90
2019-03-26T07:30:52.747Z,4.99
2019-03-26T07:33:24.118Z,5.01
2019-03-26T07:35:55.351Z,5.01
2019-03-26T07:38:26.896Z,5.00
2019-03-26T07:40:58.201Z,5.03
2019-03-26T07:43:29.544Z,5.10
2019-03-26T07:46:01.640Z,5.13
2019-03-26T07:48:32.945Z,5.19
2019-03-26T07:51:05.186Z,5.28
2019-03-26T07:53:36.560Z,5.34
2019-03-26T07:56:08.037Z,5.41
2019-03-26T07:58:39.386Z,5.37
2019-03-26T08:01:10.616Z,5.41
2019-03-26T08:03:42.124Z,5.44
2019-03-26T08:06:13.351Z,5.45
2019-03-26T08:08:44.642Z,5.49
2019-03-26T08:11:16.100Z,5.60
2019-03-26T08:13:47.571Z,5.61
2019-03-26T08:16:19.042Z,5.65
2019-03-26T08:18:50.333Z,5.68
2019-03-26T08:21:21.638Z,5.81
2019-03-26T08:23:53.069Z,5.95
2019-03-26T08:26:24.295Z,6.13
2019-03-26T08:28:55.642Z,6.30
2019-03-26T08:31:27.014Z,6.42
2019-03-26T08:33:58.319Z,6.56
2019-03-26T08:36:29.682Z,6.69
2019-03-26T08:39:00.968Z,6.93
2019-03-26T08:41:33.799Z,7.22
2019-03-26T08:44:05.231Z,7.27
2019-03-26T08:46:36.546Z,7.29
2019-03-26T08:49:07.980Z,7.32
2019-03-26T08:51:40.082Z,7.31
2019-03-26T08:54:11.372Z,7.31
2019-03-26T08:56:42.679Z,7.42
2019-03-26T08:59:14.038Z,7.48
2019-03-26T09:01:45.270Z,7.52
2019-03-26T09:04:16.572Z,7.50
2019-03-26T09:06:47.950Z,7.68
2019-03-26T09:09:19.381Z,7.89
2019-03-26T09:11:50.623Z,8.17
2019-03-26T09:14:21.971Z,8.09
2019-03-26T09:16:53.281Z,8.08
2019-03-26T09:19:24.664Z,8.17
2019-03-26T09:21:56.033Z,8.33
2019-03-26T09:24:27.382Z,8.31
2019-03-26T09:26:58.719Z,8.27
2019-03-26T09:29:30.003Z,8.13
2019-03-26T09:32:01.250Z,7.98
2019-03-26T09:34:32.615Z,7.98
2019-03-26T09:37:04.139Z,7.92
2019-03-26T09:39:38.251Z,7.87
2019-03-26T09:42:08.503Z,7.84
2019-03-26T09:44:39.863Z,7.97
2019-03-26T09:47:16.340Z,7.99
2019-03-26T09:49:44.168Z,8.18
2019-03-26T09:52:15.476Z,8.22
2019-03-26T09:54:46.897Z,8.11
2019-03-26T09:57:18.268Z,8.12
2019-03-26T09:59:49.618Z,8.29
2019-03-26T10:02:20.920Z,8.33
2019-03-26T10:04:52.224Z,8.47
2019-03-26T10:07:23.521Z,8.29
2019-03-26T10:09:54.952Z,8.29
2019-03-26T10:12:26.205Z,8.37
2019-03-26T10:14:57.567Z,8.45
2019-03-26T10:17:28.803Z,8.43
2019-03-26T10:20:00.374Z,8.30
2019-03-26T10:22:31.757Z,8.40
2019-03-26T10:25:03.037Z,8.21
2019-03-26T10:27:35.174Z,8.05
2019-03-26T10:30:10.289Z,7.97
2019-03-26T10:32:41.876Z,8.09
2019-03-26T10:35:13.254Z,8.05
2019-03-26T10:37:44.637Z,8.01
2019-03-26T10:40:23.315Z,8.07
2019-03-26T10:42:54.603Z,8.08
2019-03-26T10:45:25.878Z,8.27
2019-03-26T10:48:00.065Z,8.31
2019-03-26T10:50:31.331Z,8.31
2019-03-26T10:53:02.660Z,8.29
2019-03-26T10:55:35.263Z,8.14
2019-03-26T10:58:07.700Z,8.14
2019-03-26T11:00:39.090Z,8.09
2019-03-26T11:03:10.514Z,7.97
2019-03-26T11:05:41.759Z,8.00
2019-03-26T11:08:13.137Z,7.99
2019-03-26T11:10:44.458Z,8.01
2019-03-26T11:13:15.707Z,8.18
2019-03-26T11:15:47.086Z,8.27
2019-03-26T11:18:18.546Z,8.26
2019-03-26T11:21:01.863Z,8.36
2019-03-26T11:23:22.922Z,8.48
2019-03-26T11:25:55.461Z,8.61
2019-03-26T11:28:26.702Z,8.53
2019-03-26T11:30:57.984Z,8.57
2019-03-26T11:33:29.330Z,8.56
2019-03-26T11:36:00.705Z,8.50
2019-03-26T11:38:32.135Z,8.61
2019-03-26T11:41:03.437Z,8.75
2019-03-26T11:43:34.745Z,8.84
2019-03-26T11:46:06.191Z,8.77
2019-03-26T11:48:37.485Z,8.82
2019-03-26T11:51:08.960Z,8.93
2019-03-26T11:53:40.204Z,8.95
2019-03-26T11:56:11.508Z,9.09
2019-03-26T11:58:42.819Z,9.08
2019-03-26T12:01:14.205Z,9.30
2019-03-26T12:03:45.526Z,9.35
2019-03-26T12:06:16.846Z,9.47
2019-03-26T12:08:48.090Z,9.39
2019-03-26T12:11:19.389Z,9.36
2019-03-26T12:13:50.703Z,9.48
2019-03-26T12:16:22.007Z,9.46
2019-03-26T12:18:53.320Z,9.38
2019-03-26T12:21:24.626Z,9.35
2019-03-26T12:23:55.869Z,9.37
2019-03-26T12:26:27.368Z,9.34
2019-03-26T12:28:58.621Z,9.35
2019-03-26T12:31:29.938Z,9.47
2019-03-26T12:34:01.677Z,9.66
2019-03-26T12:36:39.980Z,9.40
2019-03-26T12:39:08.091Z,9.30
2019-03-26T12:41:39.503Z,9.25
2019-03-26T12:44:10.877Z,9.29
2019-03-26T12:46:42.108Z,9.38
2019-03-26T12:49:13.578Z,9.54
2019-03-26T12:51:44.852Z,9.66
2019-03-26T12:54:17.863Z,9.77
2019-03-26T12:56:50.294Z,9.69
2019-03-26T12:59:21.534Z,9.30
2019-03-26T13:01:52.779Z,9.25
2019-03-26T13:04:24.100Z,9.28
2019-03-26T13:06:55.405Z,9.35
2019-03-26T13:09:26.709Z,9.47
2019-03-26T13:11:58.212Z,9.67
2019-03-26T13:14:29.658Z,9.61
2019-03-26T13:17:00.974Z,9.58
2019-03-26T13:19:32.360Z,9.73
2019-03-26T13:22:03.668Z,9.86
2019-03-26T13:24:35.029Z,9.97
2019-03-26T13:27:06.268Z,9.92
2019-03-26T13:29:39.668Z,9.85
2019-03-26T13:32:13.057Z,9.88
2019-03-26T13:34:44.043Z,9.81
2019-03-26T13:37:15.282Z,9.71
2019-03-26T13:39:46.686Z,9.68
2019-03-26T13:42:18.019Z,9.73
2019-03-26T13:44:49.333Z,9.70
2019-03-26T13:47:20.785Z,9.62
2019-03-26T13:49:52.143Z,9.60
2019-03-26T13:52:23.443Z,9.71
2019-03-26T13:54:54.750Z,9.86
2019-03-26T13:57:26.032Z,9.73
2019-03-26T13:59:57.511Z,9.72
2019-03-26T14:02:30.805Z,9.83
2019-03-26T14:05:02.112Z,9.60
2019-03-26T14:07:33.614Z,9.88
2019-03-26T14:10:09.304Z,9.89
2019-03-26T14:12:40.613Z,9.87
2019-03-26T14:15:12.098Z,9.50
2019-03-26T14:17:43.402Z,9.52
2019-03-26T14:20:15.466Z,9.52
2019-03-26T14:22:46.988Z,9.58
2019-03-26T14:25:18.366Z,9.75
2019-03-26T14:27:50.309Z,9.91
2019-03-26T14:30:40.901Z,10.14
2019-03-26T14:33:12.975Z,9.90
2019-03-26T14:35:44.423Z,10.02
2019-03-26T14:38:15.829Z,9.85
2019-03-26T14:40:54.668Z,9.87
2019-03-26T14:43:20.358Z,9.85
2019-03-26T14:45:51.829Z,9.88
2019-03-26T14:48:23.360Z,9.82
2019-03-26T14:50:54.708Z,9.63
2019-03-26T14:53:26.129Z,9.66
2019-03-26T14:55:58.242Z,9.74
2019-03-26T14:58:29.634Z,9.83
2019-03-26T15:01:01.287Z,9.86
2019-03-26T15:03:33.196Z,9.87
2019-03-26T15:06:07.496Z,9.86
2019-03-26T15:08:38.965Z,9.93
2019-03-26T15:11:10.441Z,9.87
2019-03-26T15:13:41.928Z,9.86
2019-03-26T15:16:13.165Z,9.82
2019-03-26T15:18:44.596Z,9.78
2019-03-26T15:21:19.323Z,9.81
2019-03-26T15:24:11.028Z,9.88
2019-03-26T15:26:42.321Z,10.01
2019-03-26T15:29:15.126Z,10.11
2019-03-26T15:31:46.566Z,10.23
2019-03-26T15:34:17.945Z,10.29
2019-03-26T15:36:49.351Z,10.14
2019-03-26T15:39:20.916Z,10.28
2019-03-26T15:41:52.436Z,10.27
2019-03-26T15:44:26.156Z,10.23
2019-03-26T15:46:57.543Z,10.24
2019-03-26T15:49:31.967Z,10.29
2019-03-26T15:52:03.217Z,10.30
2019-03-26T15:54:34.673Z,10.34
2019-03-26T15:57:06.726Z,10.28
2019-03-26T15:59:38.171Z,10.26
2019-03-26T16:02:09.634Z,10.29
2019-03-26T16:04:41.026Z,10.23
2019-03-26T16:07:12.410Z,10.20
2019-03-26T16:09:43.814Z,10.15
2019-03-26T16:12:17.231Z,10.15
2019-03-26T16:14:48.540Z,10.03
2019-03-26T16:17:19.861Z,10.04
2019-03-26T16:19:51.157Z,9.78
2019-03-26T16:22:22.460Z,9.85
2019-03-26T16:24:53.980Z,9.83
2019-03-26T16:27:25.220Z,9.78
2019-03-26T16:29:56.576Z,9.73
2019-03-26T16:32:28.175Z,9.66
2019-03-26T16:34:59.523Z,9.69
2019-03-26T16:37:36.214Z,9.66
2019-03-26T16:40:08.249Z,9.63
2019-03-26T16:42:39.523Z,9.61
2019-03-26T16:45:11.712Z,9.57
2019-03-26T16:47:43.113Z,9.48
2019-03-26T16:50:14.702Z,9.39
2019-03-26T16:52:45.936Z,9.30
2019-03-26T16:55:17.392Z,9.28
2019-03-26T16:57:49.856Z,9.24
2019-03-26T17:00:30.712Z,9.19
2019-03-26T17:03:02.222Z,9.20
2019-03-26T17:05:33.737Z,9.28
2019-03-26T17:08:05.645Z,9.27
2019-03-26T17:10:37.106Z,9.24
2019-03-26T17:13:08.496Z,9.22
2019-03-26T17:15:40.002Z,9.19
2019-03-26T17:18:11.300Z,9.18
2019-03-26T17:20:43.821Z,9.12
2019-03-26T17:23:15.121Z,9.18
2019-03-26T17:25:46.548Z,9.19
2019-03-26T17:28:18.922Z,9.18
2019-03-26T17:30:50.362Z,9.11
2019-03-26T17:33:21.639Z,9.07
2019-03-26T17:35:53.198Z,9.00
2019-03-26T17:38:24.647Z,8.94
2019-03-26T17:40:59.261Z,8.91
2019-03-26T17:43:30.649Z,8.86
2019-03-26T17:46:02.031Z,8.82
2019-03-26T17:48:34.352Z,8.73
2019-03-26T17:51:05.853Z,8.66
2019-03-26T17:53:37.235Z,8.53
2019-03-26T17:56:08.753Z,8.47
2019-03-26T17:58:40.125Z,8.46
2019-03-26T18:01:14.923Z,8.41
2019-03-26T18:03:46.418Z,8.37
2019-03-26T18:06:17.789Z,8.33
2019-03-26T18:08:49.111Z,8.30
2019-03-26T18:11:20.487Z,8.27
2019-03-26T18:13:51.744Z,8.22
2019-03-26T18:16:23.125Z,8.18
2019-03-26T18:18:55.077Z,8.12
2019-03-26T18:21:27.428Z,8.09
2019-03-26T18:23:58.814Z,8.00
2019-03-26T18:26:30.184Z,7.95
2019-03-26T18:29:01.492Z,7.90
2019-03-26T18:31:32.795Z,7.85
2019-03-26T18:34:04.240Z,7.80
2019-03-26T18:36:38.954Z,7.73
2019-03-26T18:39:10.338Z,7.67
2019-03-26T18:41:42.058Z,7.59
2019-03-26T18:44:15.086Z,7.59
2019-03-26T18:46:46.856Z,7.55
2019-03-26T18:49:18.286Z,7.51
2019-03-26T18:51:49.872Z,7.51
2019-03-26T18:54:21.337Z,7.45
2019-03-26T18:56:52.708Z,7.44
2019-03-26T18:59:24.731Z,7.45
2019-03-26T19:01:56.295Z,7.35
2019-03-26T19:04:32.694Z,7.28
2019-03-26T19:07:18.393Z,7.26
2019-03-26T19:09:49.811Z,7.23
2019-03-26T19:12:21.357Z,7.25
2019-03-26T19:14:52.816Z,7.29
2019-03-26T19:17:24.364Z,7.28
2019-03-26T19:19:58.249Z,7.17
2019-03-26T19:22:28.937Z,7.10
2019-03-26T19:25:00.445Z,6.99
2019-03-26T19:27:33.989Z,6.90
2019-03-26T19:30:08.360Z,6.81
2019-03-26T19:32:39.779Z,6.72
2019-03-26T19:35:11.527Z,6.67
2019-03-26T19:37:43.237Z,6.73
2019-03-26T19:40:14.825Z,6.79
2019-03-26T19:42:46.237Z,6.79
2019-03-26T19:45:17.788Z,6.84
2019-03-26T19:47:49.349Z,6.79
2019-03-26T19:50:21.093Z,6.66
2019-03-26T19:52:52.402Z,6.62
2019-03-26T19:55:24.665Z,6.64
2019-03-26T19:57:55.984Z,6.61
2019-03-26T20:00:27.502Z,6.70
2019-03-26T20:02:59.003Z,6.57
2019-03-26T20:05:30.464Z,6.51
2019-03-26T20:08:01.914Z,6.43
2019-03-26T20:10:34.291Z,6.37
2019-03-26T20:13:05.755Z,6.33
2019-03-26T20:15:37.151Z,6.21
2019-03-26T20:18:08.514Z,6.26
2019-03-26T20:20:39.897Z,6.40
2019-03-26T20:23:11.205Z,6.32
2019-03-26T20:25:42.702Z,6.23
2019-03-26T20:28:14.317Z,6.06
2019-03-26T20:30:47.056Z,5.95
2019-03-26T20:33:18.550Z,5.82
2019-03-26T20:35:50.006Z,5.75
2019-03-26T20:38:21.480Z,5.73
2019-03-26T20:40:53.019Z,5.57
2019-03-26T20:43:36.538Z,5.47
2019-03-26T20:45:57.637Z,5.38
2019-03-26T20:48:30.098Z,5.33
2019-03-26T20:51:01.596Z,5.30
2019-03-26T20:53:32.911Z,5.27
2019-03-26T20:56:04.441Z,5.27
2019-03-26T20:58:36.368Z,5.21
2019-03-26T21:01:09.171Z,5.16
2019-03-26T21:03:41.281Z,5.10
2019-03-26T21:06:13.689Z,5.10
2019-03-26T21:08:45.031Z,5.07
2019-03-26T21:11:16.597Z,5.02
2019-03-26T21:13:50.902Z,5.01
2019-03-26T21:16:20.882Z,5.01
2019-03-26T21:18:52.255Z,4.96
2019-03-26T21:21:23.583Z,4.96
2019-03-26T21:23:54.894Z,4.95
2019-03-26T21:26:26.410Z,4.93
2019-03-26T21:28:57.733Z,5.00
2019-03-26T21:31:29.183Z,5.08
2019-03-26T21:34:00.599Z,5.13
2019-03-26T21:36:31.913Z,5.16
2019-03-26T21:39:04.201Z,5.18
2019-03-26T21:41:35.715Z,5.18
2019-03-26T21:44:08.678Z,5.18
2019-03-26T21:46:39.925Z,5.20
2019-03-26T21:49:11.510Z,5.16
2019-03-26T21:51:42.911Z,5.11
2019-03-26T21:54:14.360Z,5.01
2019-03-26T21:56:45.601Z,4.90
2019-03-26T21:59:17.119Z,4.81
2019-03-26T22:01:48.692Z,4.68
2019-03-26T22:04:20.412Z,4.60
2019-03-26T22:06:51.850Z,4.54
2019-03-26T22:09:23.236Z,4.53
2019-03-26T22:11:54.473Z,4.56
2019-03-26T22:14:26.008Z,4.55
2019-03-26T22:16:57.394Z,4.54
2019-03-26T22:19:29.162Z,4.56
2019-03-26T22:22:00.527Z,4.58
2019-03-26T22:24:32.999Z,4.68
2019-03-26T22:27:04.225Z,4.71
2019-03-26T22:29:36.478Z,4.67
2019-03-26T22:32:07.883Z,4.71
2019-03-26T22:34:39.185Z,4.72
2019-03-26T22:37:16.231Z,4.74
2019-03-26T22:39:47.615Z,4.72
2019-03-26T22:42:19.054Z,4.74
2019-03-26T22:44:50.284Z,4.78
2019-03-26T22:47:21.778Z,4.81
2019-03-26T22:49:53.226Z,4.79
2019-03-26T22:52:24.749Z,4.92
2019-03-26T22:54:56.082Z,5.10
2019-03-26T22:57:27.497Z,5.03
2019-03-26T23:00:00.467Z,5.09
2019-03-26T23:02:32.060Z,5.21
2019-03-26T23:05:03.546Z,5.39
2019-03-26T23:07:37.197Z,5.31
2019-03-26T23:10:09.330Z,5.19
2019-03-26T23:12:40.917Z,5.21
2019-03-26T23:15:24.598Z,5.44
2019-03-26T23:17:56.021Z,5.46
2019-03-26T23:20:27.301Z,5.75
2019-03-26T23:22:58.664Z,5.65
2019-03-26T23:25:29.941Z,5.50
2019-03-26T23:28:01.268Z,5.36
2019-03-26T23:30:32.942Z,5.26
2019-03-26T23:33:04.330Z,5.29
2019-03-26T23:35:36.684Z,5.33
2019-03-26T23:38:08.034Z,5.25
2019-03-26T23:40:39.369Z,5.20
2019-03-26T23:43:10.844Z,5.33
2019-03-26T23:45:42.202Z,5.33
2019-03-26T23:48:13.546Z,5.26
2019-03-26T23:50:44.899Z,5.26
2019-03-26T23:53:16.388Z,5.25
2019-03-26T23:55:47.748Z,5.19
2019-03-26T23:58:18.985Z,5.12
